createdAt,value
2022-11-17T00:02:54.377Z,8.10
2022-11-17T00:18:21.034Z,8.40
2022-11-17T00:21:06.775Z,8.60
2022-11-17T00:26:17.260Z,8.70
2022-11-17T00:28:45.399Z,8.50
2022-11-17T00:31:31.756Z,8.70
2022-11-17T00:34:07.527Z,9.00
2022-11-17T00:36:39.283Z,8.70
2022-11-17T00:39:08.063Z,8.80
2022-11-17T00:44:05.071Z,9.20
2022-11-17T00:46:33.435Z,8.90
2022-11-17T00:49:02.977Z,8.80
2022-11-17T00:54:00.035Z,9.70
2022-11-17T01:06:35.423Z,9.20
2022-11-17T01:09:06.190Z,8.60
2022-11-17T01:14:03.323Z,8.80
2022-11-17T01:16:32.397Z,9.30
2022-11-17T01:19:02.006Z,8.90
2022-11-17T01:21:32.883Z,9.70
2022-11-17T01:24:02.733Z,9.10
2022-11-17T01:26:33.154Z,9.70
2022-11-17T01:29:02.130Z,9.60
2022-11-17T01:31:32.182Z,9.30
2022-11-17T01:34:00.663Z,9.70
2022-11-17T01:36:31.170Z,8.80
2022-11-17T01:39:00.691Z,9.60
2022-11-17T01:41:29.621Z,9.00
2022-11-17T01:43:59.863Z,9.50
2022-11-17T01:46:33.109Z,9.50
2022-11-17T01:49:06.140Z,9.00
2022-11-17T01:51:38.313Z,9.40
2022-11-17T01:54:10.035Z,9.90
2022-11-17T01:56:41.733Z,9.70
2022-11-17T01:59:17.610Z,9.60
2022-11-17T02:04:26.670Z,10.80
2022-11-17T02:07:01.196Z,9.50
2022-11-17T02:09:31.139Z,9.70
2022-11-17T02:12:00.629Z,12.40
2022-11-17T02:16:59.997Z,9.80
2022-11-17T02:19:38.196Z,9.90
2022-11-17T02:22:27.209Z,10.30
2022-11-17T02:25:30.831Z,9.70
2022-11-17T02:28:12.116Z,9.50
2022-11-17T02:30:48.238Z,10.40
2022-11-17T02:33:27.136Z,9.80
2022-11-17T02:36:03.415Z,9.60
2022-11-17T02:38:36.430Z,10.20
2022-11-17T02:41:12.991Z,9.70
2022-11-17T02:44:03.524Z,9.60
2022-11-17T02:46:38.887Z,9.80
2022-11-17T02:49:13.708Z,9.50
2022-11-17T02:51:44.066Z,9.60
2022-11-17T02:54:13.264Z,9.50
2022-11-17T02:56:44.402Z,10.10
2022-11-17T02:59:16.518Z,9.70
2022-11-17T03:02:21.036Z,9.60
2022-11-17T03:05:02.419Z,9.50
2022-11-17T03:07:47.101Z,9.60
2022-11-17T03:10:18.619Z,9.90
2022-11-17T03:12:54.766Z,9.50
2022-11-17T03:15:34.021Z,9.40
2022-11-17T03:18:10.268Z,9.60
2022-11-17T03:20:45.699Z,9.50
2022-11-17T03:23:19.388Z,9.50
2022-11-17T03:25:51.441Z,9.70
2022-11-17T03:28:22.859Z,9.50
2022-11-17T03:30:54.686Z,9.50
2022-11-17T03:33:24.672Z,11.90
2022-11-17T03:36:00.889Z,9.60
2022-11-17T03:38:32.867Z,9.20
2022-11-17T03:41:04.188Z,9.70
2022-11-17T03:46:07.520Z,9.60
2022-11-17T03:48:40.329Z,9.20
2022-11-17T03:51:12.946Z,9.70
2022-11-17T03:56:16.019Z,9.50
2022-11-17T03:58:56.769Z,8.80
2022-11-17T04:01:28.819Z,8.90
2022-11-17T04:16:55.342Z,9.40
2022-11-17T04:21:51.689Z,8.90
2022-11-17T04:29:34.946Z,9.00
2022-11-17T04:32:04.470Z,9.40
2022-11-17T04:39:38.983Z,9.20
2022-11-17T04:49:33.827Z,9.00
2022-11-17T04:54:30.623Z,9.10
2022-11-17T05:07:14.220Z,9.30
2022-11-17T05:09:42.332Z,9.20
2022-11-17T05:12:28.503Z,8.90
2022-11-17T05:19:52.290Z,8.90
2022-11-17T05:22:41.947Z,9.20
2022-11-17T05:25:10.771Z,8.80
2022-11-17T05:27:39.415Z,8.60
2022-11-17T05:30:09.600Z,8.70
2022-11-17T05:35:06.950Z,8.60
2022-11-17T05:37:36.386Z,8.50
2022-11-17T05:52:27.263Z,9.60
2022-11-17T05:54:56.666Z,9.30
2022-11-17T05:57:29.893Z,8.80
2022-11-17T06:00:01.566Z,9.70
2022-11-17T06:02:33.796Z,9.60
2022-11-17T06:05:02.359Z,9.60
2022-11-17T06:07:30.551Z,9.10
2022-11-17T06:09:59.994Z,9.70
2022-11-17T06:14:56.413Z,9.10
2022-11-17T06:17:28.883Z,9.40
2022-11-17T06:20:02.063Z,9.50
2022-11-17T06:22:31.432Z,9.60
2022-11-17T06:25:03.112Z,9.10
2022-11-17T06:27:32.669Z,8.80
2022-11-17T06:30:03.403Z,9.60
2022-11-17T06:32:32.583Z,9.50
2022-11-17T06:35:02.557Z,9.40
2022-11-17T06:40:00.422Z,9.60
2022-11-17T06:45:12.112Z,9.60
2022-11-17T06:50:10.005Z,9.70
2022-11-17T06:52:41.734Z,9.80
2022-11-17T06:55:11.511Z,9.90
2022-11-17T06:57:39.636Z,9.40
2022-11-17T07:00:09.039Z,10.50
2022-11-17T07:05:06.493Z,10.30
2022-11-17T07:07:34.629Z,10.40
2022-11-17T07:12:34.125Z,10.10
2022-11-17T07:29:54.538Z,9.70
2022-11-17T07:34:51.390Z,11.00
2022-11-17T07:42:16.424Z,10.40
2022-11-17T07:44:44.579Z,10.30
2022-11-17T07:47:14.048Z,9.70
2022-11-17T08:04:34.149Z,9.80
2022-11-17T08:09:31.283Z,10.00
2022-11-17T08:11:59.997Z,10.20
2022-11-17T08:14:28.135Z,10.00
2022-11-17T08:21:54.259Z,10.00
2022-11-17T08:26:50.882Z,9.90
2022-11-17T08:36:44.590Z,9.60
2022-11-17T08:39:15.479Z,9.90
2022-11-17T08:56:35.340Z,9.70
2022-11-17T08:59:03.777Z,10.40
2022-11-17T09:13:56.361Z,9.60
2022-11-17T09:18:57.949Z,9.90
2022-11-17T09:21:27.310Z,10.10
2022-11-17T09:31:23.377Z,10.30
2022-11-17T09:33:51.618Z,10.30
2022-11-17T09:36:20.026Z,10.00
2022-11-17T09:38:48.276Z,10.10
2022-11-17T09:41:24.272Z,10.20
2022-11-17T09:44:00.276Z,10.20
2022-11-17T09:46:41.894Z,10.90
2022-11-17T09:49:16.946Z,13.40
2022-11-17T09:51:49.561Z,10.90
2022-11-17T09:54:24.680Z,11.00
2022-11-17T09:59:25.015Z,11.10
2022-11-17T10:01:54.591Z,11.00
2022-11-17T10:06:51.733Z,10.90
2022-11-17T10:09:27.881Z,11.00
2022-11-17T10:12:14.116Z,11.50
2022-11-17T10:14:42.988Z,10.90
2022-11-17T10:17:13.654Z,10.90
2022-11-17T10:19:43.853Z,10.90
2022-11-17T10:22:33.433Z,10.60
2022-11-17T10:27:31.826Z,10.30
2022-11-17T10:30:01.918Z,11.20
2022-11-17T10:32:33.850Z,10.80
2022-11-17T10:35:16.598Z,10.70
2022-11-17T10:37:53.243Z,10.80
2022-11-17T10:42:28.780Z,10.80
2022-11-17T10:45:00.648Z,11.00
2022-11-17T10:47:37.573Z,10.90
2022-11-17T10:50:24.278Z,11.20
2022-11-17T10:52:54.120Z,11.10
2022-11-17T10:55:26.948Z,11.10
2022-11-17T10:58:00.477Z,11.40
2022-11-17T11:00:33.634Z,11.60
2022-11-17T11:03:20.247Z,11.70
2022-11-17T11:06:22.286Z,11.80
2022-11-17T11:08:55.260Z,11.60
2022-11-17T11:11:42.228Z,11.80
2022-11-17T11:14:19.593Z,12.00
2022-11-17T11:16:49.409Z,12.00
2022-11-17T11:19:19.638Z,12.00
2022-11-17T11:22:01.964Z,11.60
2022-11-17T11:24:39.732Z,11.80
2022-11-17T11:27:29.309Z,12.20
2022-11-17T11:30:03.710Z,12.10
2022-11-17T11:32:41.978Z,12.00
2022-11-17T11:35:34.434Z,12.70
2022-11-17T11:38:14.806Z,12.40
2022-11-17T11:40:46.993Z,12.20
2022-11-17T11:43:29.054Z,12.30
2022-11-17T11:46:05.739Z,12.30
2022-11-17T11:48:36.542Z,10.40
2022-11-17T11:51:10.946Z,12.80
2022-11-17T11:53:48.713Z,12.40
2022-11-17T11:56:21.018Z,12.30
2022-11-17T11:58:54.875Z,12.50
2022-11-17T12:01:24.732Z,12.20
2022-11-17T12:04:05.836Z,12.40
2022-11-17T12:06:41.562Z,12.40
2022-11-17T12:09:35.069Z,12.60
2022-11-17T12:12:09.442Z,12.40
2022-11-17T12:14:38.988Z,13.20
2022-11-17T12:17:23.278Z,12.60
2022-11-17T12:19:59.709Z,12.30
2022-11-17T12:23:05.485Z,12.50
2022-11-17T12:25:36.040Z,12.20
2022-11-17T12:28:43.036Z,12.40
2022-11-17T12:31:13.025Z,12.30
2022-11-17T12:34:21.759Z,12.20
2022-11-17T12:37:28.738Z,12.30
2022-11-17T12:40:02.054Z,12.20
2022-11-17T12:42:31.372Z,12.80
2022-11-17T12:45:11.555Z,12.60
2022-11-17T12:47:41.001Z,12.90
2022-11-17T12:50:40.229Z,12.30
2022-11-17T12:53:34.370Z,12.20
2022-11-17T12:56:27.865Z,12.50
2022-11-17T12:59:18.019Z,12.90
2022-11-17T13:01:53.450Z,12.40
2022-11-17T13:04:24.792Z,13.20
2022-11-17T13:07:05.503Z,12.80
2022-11-17T13:09:34.969Z,13.10
2022-11-17T13:12:05.512Z,12.70
2022-11-17T13:14:34.493Z,13.00
2022-11-17T13:17:03.921Z,12.70
2022-11-17T13:19:38.440Z,13.10
2022-11-17T13:22:16.601Z,12.60
2022-11-17T13:24:46.655Z,12.40
2022-11-17T13:27:22.582Z,12.80
2022-11-17T13:32:21.344Z,12.60
2022-11-17T13:34:51.710Z,12.80
2022-11-17T13:37:23.337Z,13.10
2022-11-17T13:40:00.165Z,11.60
2022-11-17T13:42:31.597Z,12.30
2022-11-17T13:45:03.084Z,12.50
2022-11-17T13:47:46.654Z,12.70
2022-11-17T13:50:35.578Z,13.50
2022-11-17T13:53:07.769Z,12.40
2022-11-17T13:58:06.846Z,12.40
2022-11-17T14:00:35.308Z,12.30
2022-11-17T14:03:05.102Z,11.90
2022-11-17T14:05:34.277Z,12.20
2022-11-17T14:08:23.620Z,12.20
2022-11-17T14:10:51.826Z,12.30
2022-11-17T14:13:30.009Z,12.20
2022-11-17T14:16:01.188Z,12.30
2022-11-17T14:18:32.141Z,12.20
2022-11-17T14:21:09.361Z,11.60
2022-11-17T14:23:39.004Z,11.20
2022-11-17T14:26:07.512Z,11.60
2022-11-17T14:36:01.192Z,11.80
2022-11-17T14:40:59.305Z,11.00
2022-11-17T14:45:55.697Z,10.70
2022-11-17T14:48:23.876Z,10.70
2022-11-17T14:50:58.373Z,10.90
2022-11-17T14:55:55.013Z,11.00
2022-11-17T14:58:24.422Z,10.50
2022-11-17T15:10:46.941Z,10.10
2022-11-17T15:15:44.860Z,10.60
2022-11-17T15:25:39.368Z,10.60
2022-11-17T15:28:07.497Z,10.20
2022-11-17T15:33:05.380Z,10.30
2022-11-17T15:38:01.740Z,10.30
2022-11-17T15:47:57.786Z,10.00
2022-11-17T15:50:27.437Z,10.30
2022-11-17T15:53:04.569Z,9.70
2022-11-17T15:55:35.216Z,9.90
2022-11-17T16:05:31.146Z,9.80
2022-11-17T16:20:22.482Z,9.70
2022-11-17T16:22:52.050Z,9.80
2022-11-17T16:25:20.277Z,9.90
2022-11-17T16:30:17.781Z,9.60
2022-11-17T16:40:13.043Z,9.80
2022-11-17T16:45:10.065Z,9.70
2022-11-17T16:50:07.300Z,9.70
2022-11-17T16:55:05.310Z,9.90
2022-11-17T16:57:34.910Z,10.00
2022-11-17T17:14:55.966Z,9.30
2022-11-17T17:17:24.068Z,9.90
2022-11-17T17:19:52.147Z,9.80
2022-11-17T17:24:48.585Z,9.10
2022-11-17T17:27:16.900Z,8.80
2022-11-17T17:32:14.698Z,9.70
2022-11-17T17:37:11.104Z,8.90
2022-11-17T17:49:34.144Z,9.60
2022-11-17T17:52:02.189Z,9.90
2022-11-17T17:54:30.304Z,9.80
2022-11-17T17:56:58.391Z,9.50
2022-11-17T18:01:54.813Z,9.90
2022-11-17T18:06:52.842Z,9.50
2022-11-17T18:09:21.125Z,9.60
2022-11-17T18:11:51.202Z,9.80
2022-11-17T18:24:17.650Z,9.80
2022-11-17T18:29:18.471Z,9.70
2022-11-17T18:34:18.738Z,9.60
2022-11-17T18:36:47.057Z,9.00
2022-11-17T18:41:47.113Z,9.00
2022-11-17T18:44:16.896Z,9.10
2022-11-17T18:54:12.929Z,8.90
2022-11-17T18:59:12.341Z,8.70
2022-11-17T19:01:42.242Z,9.00
2022-11-17T19:14:05.646Z,8.60
2022-11-17T19:16:42.512Z,8.40
2022-11-17T19:24:10.448Z,8.80
2022-11-17T19:29:15.664Z,8.40
2022-11-17T19:31:46.765Z,7.80
2022-11-17T19:39:14.307Z,8.10
2022-11-17T19:49:10.516Z,8.70
2022-11-17T19:54:09.092Z,8.40
2022-11-17T19:56:38.491Z,8.10
2022-11-17T20:04:12.150Z,8.10
2022-11-17T20:09:10.701Z,7.60
2022-11-17T20:16:38.411Z,7.70
2022-11-17T20:21:36.284Z,7.60
2022-11-17T20:26:35.132Z,7.50
2022-11-17T20:31:33.549Z,7.40
2022-11-17T20:34:03.361Z,7.10
2022-11-17T20:36:32.846Z,7.10
2022-11-17T20:39:03.794Z,7.20
2022-11-17T20:44:01.927Z,7.90
2022-11-17T20:46:30.597Z,7.60
2022-11-17T20:51:27.450Z,7.70
2022-11-17T20:53:55.574Z,6.80
2022-11-17T20:56:25.027Z,8.00
2022-11-17T21:01:23.959Z,6.90
2022-11-17T21:08:51.524Z,7.90
2022-11-17T21:11:35.264Z,8.30
2022-11-17T21:14:05.943Z,7.60
2022-11-17T21:16:34.601Z,8.20
2022-11-17T21:23:59.806Z,7.70
2022-11-17T21:31:34.378Z,7.50
2022-11-17T21:34:04.311Z,7.40
2022-11-17T21:36:33.307Z,7.40
2022-11-17T21:41:31.035Z,7.30
2022-11-17T21:44:00.884Z,6.40
2022-11-17T21:46:30.372Z,6.80
2022-11-17T21:49:01.189Z,7.30
2022-11-17T21:51:33.375Z,7.30
2022-11-17T21:54:03.140Z,7.40
2022-11-17T21:59:02.000Z,7.40
2022-11-17T22:04:00.252Z,7.10
2022-11-17T22:06:28.755Z,8.00
2022-11-17T22:08:57.733Z,7.70
2022-11-17T22:11:36.694Z,6.70
2022-11-17T22:14:07.464Z,7.30
2022-11-17T22:19:06.112Z,7.20
2022-11-17T22:29:03.883Z,6.70
2022-11-17T22:34:01.001Z,7.70
2022-11-17T22:36:30.554Z,7.50
2022-11-17T22:43:57.772Z,6.70
2022-11-17T22:46:27.224Z,6.60
2022-11-17T22:48:55.859Z,7.10
2022-11-17T22:54:11.661Z,6.80
2022-11-17T23:11:39.075Z,6.60
2022-11-17T23:14:08.650Z,6.50
2022-11-17T23:26:33.011Z,6.40
2022-11-17T23:41:25.034Z,6.30
2022-11-17T23:43:55.416Z,6.30
2022-11-17T23:48:53.290Z,6.10
2022-11-17T23:58:49.156Z,5.40
